x

Eel River - 17nm Wsw Of Eureka, Ca (46022) Wave Buoy

1:50am - Fri 26th Aug 2016 All times are PDT. -7 hours from GMT.

  • Sig Wave height 4.6ft
  • Swell Direction
  • Peak Period 9s
  • Average Period 7s
  • Wind
    9mph, 13mph gusts
  • Sea Temp 53°f
  • Air Temp 53°f
  • Sea Pressure 1011.5mb
  • Eel River - 17nm Wsw Of Eureka, Ca
  • Eel River - 17nm Wsw Of Eureka, Ca

More Historic Weather Station data

Upgrade to MSW Pro to gain access to the past 30 days of data for over 8000 Wavebouys and Weather Stations around the globe.

Join Pro

Comparision Forecast

View Surf forecast
   
Fri 08/26 1:50am 4.5ft 9s 7s 9 13 mph 1011.5mb 53f 53f
12:50am 4.5ft 8s 6s 9
mph
1011.5mb 53f 53f
Thu 08/25 11:50pm 5ft 8s 6s 9 11 mph 1011.6mb 53f 53f
10:50pm 5ft 8s 6s 9 11 mph 1012mb 53f 53f
9:50pm 5ft 7s 6s 11 16 mph 1011.9mb 53f 53f
8:50pm 4.5ft 8s 6s 11 13 mph 1011.7mb 53f 53f
7:50pm 4.5ft 8s 6s 9 11 mph 1011.7mb 53f 54f
6:50pm 4.5ft 8s 6s 13 16 mph 1011.3mb 53f 54f
5:50pm 5ft 8s 6s 7 11 mph 1011.7mb 53f 53f
4:50pm 4.5ft 8s 6s 4 7 mph 1012.2mb 54f 53f
3:50pm 5ft 8s 6s 4 7 mph 1012.4mb 53f 54f
2:50pm 5ft 8s 6s 7 9 mph 1012.6mb 53f 54f
1:50pm 5ft 8s 6s 9 11 mph 1012.8mb 53f 53f
12:50pm 4ft 8s 6s 9 11 mph 1013.2mb 53f 53f
11:50am 4ft 7s 6s 11
mph
1013.5mb 53f 52f
10:50am 4.5ft 8s 6s 11 13 mph 1013.5mb 53f 51f
9:50am 4ft 7s 6s 7 11 mph 1013.7mb 53f 51f
8:50am 4.5ft 7s 6s 9 11 mph 1013.6mb 53f 51f
7:50am 4.5ft 7s 6s 7 9 mph 1013.4mb 53f 51f
6:50am 4.5ft 6s 6s 7 9 mph 1012.9mb 53f 52f
5:50am 4.5ft 7s 6s 7 9 mph 1012.9mb 53f 52f
4:50am 4.5ft 8s 6s  -  4 mph 1013.1mb 53f 53f
3:50am 4ft 7s 6s 2 4 mph 1013.5mb 53f 53f
2:50am 4.5ft 7s 6s  -  2 mph 1013.7mb 53f 53f
1:50am 4.5ft 6s 6s 4 7 mph 1014.3mb 53f 53f
12:50am 4.5ft 7s 6s 4 7 mph 1015mb 53f 53f
Wed 08/24 11:50pm 4.5ft 7s 6s 4 9 mph 1015.7mb 53f 52f
10:50pm 5ft 7s 6s 2 4 mph 1016.4mb 53f 52f
9:50pm 5ft 7s 6s 4
mph
1016.8mb 53f 53f
7:50pm 4.5ft 7s 6s 13 16 mph 1016.7mb 53f 53f
6:50pm 4.5ft 7s 6s 11 16 mph 1016.9mb 53f 53f
5:50pm 4.5ft 7s 6s 13 16 mph 1017.4mb 53f 53f
4:50pm 4.5ft 7s 6s 9 11 mph 1017.8mb 53f 52f
3:50pm 4.5ft 7s 6s 9 13 mph 1018.2mb 53f 51f
2:50pm 4.5ft 7s 6s 7 9 mph 1018.7mb 53f 51f
1:50pm 4.5ft 7s 6s 4 7 mph 1019mb 53f 51f
12:50pm 4.5ft 7s 6s 2 4 mph 1019.3mb 53f 51f
11:50am 4.5ft 6s 6s 2
mph
1019.8mb 53f 50f
10:50am 5ft 7s 6s 4 7 mph 1019.5mb 53f 50f
9:50am 4.5ft 7s  -  7 9 mph 1019.3mb 52f 49f
8:50am 4.5ft 7s 6s 7
mph
1019.1mb 52f 49f
7:50am 5ft 7s 6s 7 11 mph 1018.7mb 52f 50f
6:50am 4.5ft 7s 6s 9 13 mph 1018.5mb 52f 50f
5:50am 5ft 7s 6s 9 11 mph 1018.2mb 53f 50f
4:50am 5ft 7s 6s 9 11 mph 1018.2mb 53f 50f
3:50am 5.5ft 8s 6s 7 11 mph 1018.5mb 53f 51f
2:50am 5.5ft 8s 6s 9 13 mph 1018.8mb 53f 53f
1:50am 6ft 8s 6s 4 7 mph 1019.1mb 52f 53f
12:50am 5ft 8s 6s 7 9 mph 1019.5mb 53f 53f
Tue 08/23 11:50pm 5ft 8s 6s 4 7 mph 1019.7mb 53f 53f
10:50pm 5ft 8s 6s 11 13 mph 1019.9mb 53f 53f
9:50pm 5ft 8s 6s 11 13 mph 1019.9mb 53f 52f
8:50pm 5ft 8s 6s 11 13 mph 1019.7mb 53f 52f
7:50pm 5ft 8s 6s 11 13 mph 1019.3mb 53f 52f
6:50pm 5ft 7s 6s 13 16 mph 1019.1mb 53f 51f
5:50pm 5.5ft 7s 6s 11 13 mph 1019mb 53f 51f
4:50pm 6ft 8s 6s 9 13 mph 1019.1mb 53f 51f
3:50pm 6ft 8s 7s 9 11 mph 1019.1mb 53f 51f
2:50pm 6ft 8s 6s 7
mph
1019.2mb 53f 52f
1:50pm 6ft 8s 7s 7 9 mph 1019.2mb 53f 51f
12:50pm 6.5ft 8s 7s 4
mph
1019.2mb 53f 50f
11:50am 6ft 8s 7s 4
mph
1019.3mb 53f 50f
10:50am 6ft 8s 7s 7 9 mph 1019.1mb 53f 49f
9:50am 6.5ft 8s 7s 7
mph
1018.5mb 53f 50f
8:50am 6ft 8s 7s 2 4 mph 1018.1mb 53f 49f
7:50am 6ft 8s 7s 4 7 mph 1017.5mb 53f 49f
6:50am 6.5ft 8s 7s 4 7 mph 1016.7mb 53f 49f
5:50am 6ft 8s 7s 2 4 mph 1015.7mb 53f 49f
4:50am 6.5ft 8s 7s 4 7 mph 1015.2mb 53f 49f
3:50am 6ft 8s 7s 13
mph
1015mb 53f 51f
2:50am 6ft 8s 7s 4 7 mph 1014.7mb 53f 53f
1:50am 6ft 8s 7s 4 7 mph 1014.9mb 53f 53f
12:50am 7ft 8s 7s 9
mph
1015.1mb 53f 53f
Mon 08/22 11:50pm 6ft 8s 6s 7 9 mph 1015.2mb 53f 54f
10:50pm 6ft 8s 6s 4 7 mph 1015.3mb 53f 54f
9:50pm 6ft 8s 6s 9
mph
1015.1mb 53f 54f
8:50pm 6.5ft 8s 7s 11 13 mph 1014.5mb 54f 54f
7:50pm 6ft 8s 6s 9 11 mph 1014.2mb 53f 54f
6:50pm 6ft 8s 7s 2 4 mph 1014.2mb 53f 56f
5:50pm 6ft 8s 7s 2 4 mph 1014.4mb 54f 56f
4:50pm 6ft 8s 7s 7
mph
1014.7mb 54f 53f
3:50pm 6ft 8s 7s 7
mph
1014.8mb 54f 53f
2:50pm 6ft 8s 7s 4 7 mph 1014.8mb 54f 53f
1:50pm 6ft 8s 7s 4 7 mph 1014.9mb 53f 51f
12:50pm 6.5ft 8s 7s 7 9 mph 1015.1mb 53f 51f
11:50am 6ft 8s 7s 4 9 mph 1015.3mb 53f 51f
10:50am 6ft 9s 7s 7 9 mph 1015.3mb 53f 51f